sensor_id;sensor_type;location;lat;lon;timestamp;temperature;humidity
28175;SHT30;59417;44.788;10.334;2022-08-30T00:01:07;25.41;68.93
28175;SHT30;59417;44.788;10.334;2022-08-30T00:03:45;25.47;68.36
28175;SHT30;59417;44.788;10.334;2022-08-30T00:06:12;25.47;68.33
28175;SHT30;59417;44.788;10.334;2022-08-30T00:08:40;25.53;68.25
28175;SHT30;59417;44.788;10.334;2022-08-30T00:11:08;25.48;68.85
28175;SHT30;59417;44.788;10.334;2022-08-30T00:13:38;25.47;68.99
28175;SHT30;59417;44.788;10.334;2022-08-30T00:16:05;25.42;69.07
28175;SHT30;59417;44.788;10.334;2022-08-30T00:18:32;25.37;68.96
28175;SHT30;59417;44.788;10.334;2022-08-30T00:20:58;25.24;69.13
28175;SHT30;59417;44.788;10.334;2022-08-30T00:23:24;25.26;69.04
28175;SHT30;59417;44.788;10.334;2022-08-30T00:25:51;25.24;68.86
28175;SHT30;59417;44.788;10.334;2022-08-30T00:28:17;25.27;68.61
28175;SHT30;59417;44.788;10.334;2022-08-30T00:30:43;25.35;67.99
28175;SHT30;59417;44.788;10.334;2022-08-30T00:33:10;25.33;68.37
28175;SHT30;59417;44.788;10.334;2022-08-30T00:35:36;25.33;68.78
28175;SHT30;59417;44.788;10.334;2022-08-30T00:38:05;25.21;69.00
28175;SHT30;59417;44.788;10.334;2022-08-30T00:40:32;25.17;69.24
28175;SHT30;59417;44.788;10.334;2022-08-30T00:43:00;25.23;69.00
28175;SHT30;59417;44.788;10.334;2022-08-30T00:45:31;25.24;69.16
28175;SHT30;59417;44.788;10.334;2022-08-30T00:47:57;25.28;69.23
28175;SHT30;59417;44.788;10.334;2022-08-30T00:50:27;25.11;68.51
28175;SHT30;59417;44.788;10.334;2022-08-30T00:52:55;25.06;68.73
28175;SHT30;59417;44.788;10.334;2022-08-30T00:55:22;25.14;68.29
28175;SHT30;59417;44.788;10.334;2022-08-30T00:57:53;25.07;68.25
28175;SHT30;59417;44.788;10.334;2022-08-30T01:00:21;25.10;68.21
28175;SHT30;59417;44.788;10.334;2022-08-30T01:02:46;25.16;67.76
28175;SHT30;59417;44.788;10.334;2022-08-30T01:05:13;25.23;67.79
28175;SHT30;59417;44.788;10.334;2022-08-30T01:07:40;25.24;67.80
28175;SHT30;59417;44.788;10.334;2022-08-30T01:10:07;25.18;67.59
28175;SHT30;59417;44.788;10.334;2022-08-30T01:12:35;25.24;67.31
28175;SHT30;59417;44.788;10.334;2022-08-30T01:15:04;25.26;67.18
28175;SHT30;59417;44.788;10.334;2022-08-30T01:17:30;25.28;67.33
28175;SHT30;59417;44.788;10.334;2022-08-30T01:19:59;25.17;67.68
28175;SHT30;59417;44.788;10.334;2022-08-30T01:25:20;25.18;67.95
28175;SHT30;59417;44.788;10.334;2022-08-30T01:27:58;25.16;68.03
28175;SHT30;59417;44.788;10.334;2022-08-30T01:30:26;25.11;67.87
28175;SHT30;59417;44.788;10.334;2022-08-30T01:33:00;25.08;67.90
28175;SHT30;59417;44.788;10.334;2022-08-30T01:35:27;25.13;67.18
28175;SHT30;59417;44.788;10.334;2022-08-30T01:37:53;25.13;68.01
28175;SHT30;59417;44.788;10.334;2022-08-30T01:40:19;25.06;68.02
28175;SHT30;59417;44.788;10.334;2022-08-30T01:42:44;25.02;67.98
28175;SHT30;59417;44.788;10.334;2022-08-30T01:45:11;25.04;67.67
28175;SHT30;59417;44.788;10.334;2022-08-30T01:47:36;25.00;67.57
28175;SHT30;59417;44.788;10.334;2022-08-30T01:50:04;24.99;67.29
28175;SHT30;59417;44.788;10.334;2022-08-30T01:52:30;25.03;67.26
28175;SHT30;59417;44.788;10.334;2022-08-30T01:54:56;24.99;67.21
28175;SHT30;59417;44.788;10.334;2022-08-30T01:57:22;25.00;67.07
28175;SHT30;59417;44.788;10.334;2022-08-30T01:59:51;24.99;67.23
28175;SHT30;59417;44.788;10.334;2022-08-30T02:02:20;25.04;66.92
28175;SHT30;59417;44.788;10.334;2022-08-30T02:04:48;25.03;67.60
28175;SHT30;59417;44.788;10.334;2022-08-30T02:07:14;24.93;68.20
28175;SHT30;59417;44.788;10.334;2022-08-30T02:09:40;24.82;68.54
28175;SHT30;59417;44.788;10.334;2022-08-30T02:12:06;24.73;69.01
28175;SHT30;59417;44.788;10.334;2022-08-30T02:14:36;24.65;69.11
28175;SHT30;59417;44.788;10.334;2022-08-30T02:17:09;24.43;69.46
28175;SHT30;59417;44.788;10.334;2022-08-30T02:19:34;24.49;68.77
28175;SHT30;59417;44.788;10.334;2022-08-30T02:22:00;24.70;68.81
28175;SHT30;59417;44.788;10.334;2022-08-30T02:24:26;24.70;68.99
28175;SHT30;59417;44.788;10.334;2022-08-30T02:26:52;24.42;69.69
28175;SHT30;59417;44.788;10.334;2022-08-30T02:29:19;24.39;69.69
28175;SHT30;59417;44.788;10.334;2022-08-30T02:31:45;24.25;70.14
28175;SHT30;59417;44.788;10.334;2022-08-30T02:34:10;24.32;69.91
28175;SHT30;59417;44.788;10.334;2022-08-30T02:36:36;24.39;69.36
28175;SHT30;59417;44.788;10.334;2022-08-30T02:39:05;24.51;69.96
28175;SHT30;59417;44.788;10.334;2022-08-30T02:41:31;24.42;70.61
28175;SHT30;59417;44.788;10.334;2022-08-30T02:43:56;24.38;70.53
28175;SHT30;59417;44.788;10.334;2022-08-30T02:46:25;24.36;70.13
28175;SHT30;59417;44.788;10.334;2022-08-30T02:48:51;24.29;70.43
28175;SHT30;59417;44.788;10.334;2022-08-30T02:51:16;24.22;70.50
28175;SHT30;59417;44.788;10.334;2022-08-30T02:53:43;24.14;70.76
28175;SHT30;59417;44.788;10.334;2022-08-30T02:56:10;24.18;70.44
28175;SHT30;59417;44.788;10.334;2022-08-30T02:58:36;24.04;71.37
28175;SHT30;59417;44.788;10.334;2022-08-30T03:01:03;24.00;71.35
28175;SHT30;59417;44.788;10.334;2022-08-30T03:03:30;24.02;71.50
28175;SHT30;59417;44.788;10.334;2022-08-30T03:05:56;23.94;71.50
28175;SHT30;59417;44.788;10.334;2022-08-30T03:08:22;23.81;71.63
28175;SHT30;59417;44.788;10.334;2022-08-30T03:10:48;23.87;71.62
28175;SHT30;59417;44.788;10.334;2022-08-30T03:13:14;24.05;71.05
28175;SHT30;59417;44.788;10.334;2022-08-30T03:15:40;24.08;70.92
28175;SHT30;59417;44.788;10.334;2022-08-30T03:18:06;24.06;70.88
28175;SHT30;59417;44.788;10.334;2022-08-30T03:20:33;24.11;70.70
28175;SHT30;59417;44.788;10.334;2022-08-30T03:23:00;24.22;70.95
28175;SHT30;59417;44.788;10.334;2022-08-30T03:25:26;24.21;71.06
28175;SHT30;59417;44.788;10.334;2022-08-30T03:27:52;24.21;71.29
28175;SHT30;59417;44.788;10.334;2022-08-30T03:30:18;24.15;71.56
28175;SHT30;59417;44.788;10.334;2022-08-30T03:32:44;24.16;70.86
28175;SHT30;59417;44.788;10.334;2022-08-30T03:35:11;24.21;70.85
28175;SHT30;59417;44.788;10.334;2022-08-30T03:37:36;24.00;71.68
28175;SHT30;59417;44.788;10.334;2022-08-30T03:40:04;23.91;71.43
28175;SHT30;59417;44.788;10.334;2022-08-30T03:42:31;23.97;71.35
28175;SHT30;59417;44.788;10.334;2022-08-30T03:44:57;24.04;70.93
28175;SHT30;59417;44.788;10.334;2022-08-30T03:47:22;24.04;72.25
28175;SHT30;59417;44.788;10.334;2022-08-30T03:49:48;23.85;72.60
28175;SHT30;59417;44.788;10.334;2022-08-30T03:52:13;23.85;72.12
28175;SHT30;59417;44.788;10.334;2022-08-30T03:54:39;23.92;71.40
28175;SHT30;59417;44.788;10.334;2022-08-30T03:57:05;23.98;70.71
28175;SHT30;59417;44.788;10.334;2022-08-30T03:59:31;24.06;70.13
28175;SHT30;59417;44.788;10.334;2022-08-30T04:01:57;24.12;69.88
28175;SHT30;59417;44.788;10.334;2022-08-30T04:04:24;24.12;69.98
28175;SHT30;59417;44.788;10.334;2022-08-30T04:06:49;24.12;70.04
28175;SHT30;59417;44.788;10.334;2022-08-30T04:09:16;24.08;69.67
28175;SHT30;59417;44.788;10.334;2022-08-30T04:11:42;24.19;69.72
28175;SHT30;59417;44.788;10.334;2022-08-30T04:14:07;24.01;70.15
28175;SHT30;59417;44.788;10.334;2022-08-30T04:16:33;23.94;70.93
28175;SHT30;59417;44.788;10.334;2022-08-30T04:18:59;23.92;71.24
28175;SHT30;59417;44.788;10.334;2022-08-30T04:21:25;23.80;71.16
28175;SHT30;59417;44.788;10.334;2022-08-30T04:23:51;23.73;71.15
28175;SHT30;59417;44.788;10.334;2022-08-30T04:26:17;23.65;71.26
28175;SHT30;59417;44.788;10.334;2022-08-30T04:28:42;23.64;72.00
28175;SHT30;59417;44.788;10.334;2022-08-30T04:31:14;23.61;72.18
28175;SHT30;59417;44.788;10.334;2022-08-30T04:33:40;23.61;72.14
28175;SHT30;59417;44.788;10.334;2022-08-30T04:36:07;23.82;71.50
28175;SHT30;59417;44.788;10.334;2022-08-30T04:38:35;23.87;71.41
28175;SHT30;59417;44.788;10.334;2022-08-30T04:41:00;23.94;69.98
28175;SHT30;59417;44.788;10.334;2022-08-30T04:43:26;24.06;69.62
28175;SHT30;59417;44.788;10.334;2022-08-30T04:45:53;23.92;70.29
28175;SHT30;59417;44.788;10.334;2022-08-30T04:48:20;23.87;69.99
28175;SHT30;59417;44.788;10.334;2022-08-30T04:50:49;23.94;69.56
28175;SHT30;59417;44.788;10.334;2022-08-30T04:53:15;23.81;70.11
28175;SHT30;59417;44.788;10.334;2022-08-30T04:55:42;23.82;69.57
28175;SHT30;59417;44.788;10.334;2022-08-30T04:58:08;23.80;70.69
28175;SHT30;59417;44.788;10.334;2022-08-30T05:00:34;23.67;71.25
28175;SHT30;59417;44.788;10.334;2022-08-30T05:03:02;23.60;71.51
28175;SHT30;59417;44.788;10.334;2022-08-30T05:05:28;23.58;71.18
28175;SHT30;59417;44.788;10.334;2022-08-30T05:08:12;23.71;70.92
28175;SHT30;59417;44.788;10.334;2022-08-30T05:10:45;23.82;69.67
28175;SHT30;59417;44.788;10.334;2022-08-30T05:13:11;23.84;70.15
28175;SHT30;59417;44.788;10.334;2022-08-30T05:15:37;23.94;70.21
28175;SHT30;59417;44.788;10.334;2022-08-30T05:18:04;23.90;70.59
28175;SHT30;59417;44.788;10.334;2022-08-30T05:20:32;23.91;69.16
28175;SHT30;59417;44.788;10.334;2022-08-30T05:22:57;23.95;68.34
28175;SHT30;59417;44.788;10.334;2022-08-30T05:25:25;23.95;68.48
28175;SHT30;59417;44.788;10.334;2022-08-30T05:27:51;23.92;69.34
28175;SHT30;59417;44.788;10.334;2022-08-30T05:30:17;23.95;68.21
28175;SHT30;59417;44.788;10.334;2022-08-30T05:32:43;23.97;67.82
28175;SHT30;59417;44.788;10.334;2022-08-30T05:35:10;23.98;68.86
28175;SHT30;59417;44.788;10.334;2022-08-30T05:37:36;23.97;69.63
28175;SHT30;59417;44.788;10.334;2022-08-30T05:40:04;24.02;69.48
28175;SHT30;59417;44.788;10.334;2022-08-30T05:42:30;24.05;69.46
28175;SHT30;59417;44.788;10.334;2022-08-30T05:44:56;24.06;68.91
28175;SHT30;59417;44.788;10.334;2022-08-30T05:47:22;24.12;67.97
28175;SHT30;59417;44.788;10.334;2022-08-30T05:49:47;24.08;67.44
28175;SHT30;59417;44.788;10.334;2022-08-30T05:52:14;24.04;67.67
28175;SHT30;59417;44.788;10.334;2022-08-30T05:54:50;24.05;67.76
28175;SHT30;59417;44.788;10.334;2022-08-30T05:57:17;24.19;67.35
28175;SHT30;59417;44.788;10.334;2022-08-30T05:59:42;24.28;66.60
28175;SHT30;59417;44.788;10.334;2022-08-30T06:02:08;24.12;67.55
28175;SHT30;59417;44.788;10.334;2022-08-30T06:04:34;24.00;68.23
28175;SHT30;59417;44.788;10.334;2022-08-30T06:07:01;24.08;68.24
28175;SHT30;59417;44.788;10.334;2022-08-30T06:09:27;23.97;68.61
28175;SHT30;59417;44.788;10.334;2022-08-30T06:11:53;24.04;68.03
28175;SHT30;59417;44.788;10.334;2022-08-30T06:14:19;24.09;68.39
28175;SHT30;59417;44.788;10.334;2022-08-30T06:16:44;24.22;67.89
28175;SHT30;59417;44.788;10.334;2022-08-30T06:19:11;24.21;67.96
28175;SHT30;59417;44.788;10.334;2022-08-30T06:21:38;24.33;68.17
28175;SHT30;59417;44.788;10.334;2022-08-30T06:24:06;24.36;67.97
28175;SHT30;59417;44.788;10.334;2022-08-30T06:26:38;24.43;68.37
28175;SHT30;59417;44.788;10.334;2022-08-30T06:29:06;24.42;68.54
28175;SHT30;59417;44.788;10.334;2022-08-30T06:31:32;24.48;67.59
28175;SHT30;59417;44.788;10.334;2022-08-30T06:33:58;24.46;67.12
28175;SHT30;59417;44.788;10.334;2022-08-30T06:36:24;24.46;66.22
28175;SHT30;59417;44.788;10.334;2022-08-30T06:38:55;24.45;66.53
28175;SHT30;59417;44.788;10.334;2022-08-30T06:41:24;24.48;66.90
28175;SHT30;59417;44.788;10.334;2022-08-30T06:43:51;24.52;66.77
28175;SHT30;59417;44.788;10.334;2022-08-30T06:46:25;24.57;66.87
28175;SHT30;59417;44.788;10.334;2022-08-30T06:48:52;24.65;65.96
28175;SHT30;59417;44.788;10.334;2022-08-30T06:51:22;24.70;65.98
28175;SHT30;59417;44.788;10.334;2022-08-30T06:53:48;24.86;66.58
28175;SHT30;59417;44.788;10.334;2022-08-30T06:56:15;24.93;65.88
28175;SHT30;59417;44.788;10.334;2022-08-30T06:58:42;25.00;64.63
28175;SHT30;59417;44.788;10.334;2022-08-30T07:01:15;25.03;64.61
28175;SHT30;59417;44.788;10.334;2022-08-30T07:03:41;25.10;64.89
28175;SHT30;59417;44.788;10.334;2022-08-30T07:06:07;25.08;65.17
28175;SHT30;59417;44.788;10.334;2022-08-30T07:08:33;25.08;64.65
28175;SHT30;59417;44.788;10.334;2022-08-30T07:11:00;25.33;64.64
28175;SHT30;59417;44.788;10.334;2022-08-30T07:13:26;25.47;64.33
28175;SHT30;59417;44.788;10.334;2022-08-30T07:15:52;25.42;63.22
28175;SHT30;59417;44.788;10.334;2022-08-30T07:18:19;25.39;64.04
28175;SHT30;59417;44.788;10.334;2022-08-30T07:21:12;25.49;62.93
28175;SHT30;59417;44.788;10.334;2022-08-30T07:23:38;25.49;62.89
28175;SHT30;59417;44.788;10.334;2022-08-30T07:26:10;25.41;63.72
28175;SHT30;59417;44.788;10.334;2022-08-30T07:28:37;25.54;63.57
28175;SHT30;59417;44.788;10.334;2022-08-30T07:31:04;25.59;63.21
28175;SHT30;59417;44.788;10.334;2022-08-30T07:33:30;25.68;63.14
28175;SHT30;59417;44.788;10.334;2022-08-30T07:35:56;25.92;62.16
28175;SHT30;59417;44.788;10.334;2022-08-30T07:38:23;25.92;62.80
28175;SHT30;59417;44.788;10.334;2022-08-30T07:40:48;25.90;61.91
28175;SHT30;59417;44.788;10.334;2022-08-30T07:43:14;25.93;62.61
28175;SHT30;59417;44.788;10.334;2022-08-30T07:45:39;25.89;63.29
28175;SHT30;59417;44.788;10.334;2022-08-30T07:48:05;25.88;62.94
28175;SHT30;59417;44.788;10.334;2022-08-30T07:50:32;25.92;62.71
28175;SHT30;59417;44.788;10.334;2022-08-30T07:52:58;26.06;61.96
28175;SHT30;59417;44.788;10.334;2022-08-30T07:55:24;26.20;62.08
28175;SHT30;59417;44.788;10.334;2022-08-30T07:57:49;26.25;61.70
28175;SHT30;59417;44.788;10.334;2022-08-30T08:00:15;26.29;61.58
28175;SHT30;59417;44.788;10.334;2022-08-30T08:02:41;26.28;62.39
28175;SHT30;59417;44.788;10.334;2022-08-30T08:05:08;26.28;63.24
28175;SHT30;59417;44.788;10.334;2022-08-30T08:07:34;26.33;63.62
28175;SHT30;59417;44.788;10.334;2022-08-30T08:10:00;26.44;63.32
28175;SHT30;59417;44.788;10.334;2022-08-30T08:12:26;26.56;63.01
28175;SHT30;59417;44.788;10.334;2022-08-30T08:14:51;26.61;61.75
28175;SHT30;59417;44.788;10.334;2022-08-30T08:17:17;26.80;61.34
28175;SHT30;59417;44.788;10.334;2022-08-30T08:19:43;26.83;61.71
28175;SHT30;59417;44.788;10.334;2022-08-30T08:22:08;26.67;62.47
28175;SHT30;59417;44.788;10.334;2022-08-30T08:24:34;26.64;62.50
28175;SHT30;59417;44.788;10.334;2022-08-30T08:27:00;26.67;63.23
28175;SHT30;59417;44.788;10.334;2022-08-30T08:29:25;26.64;62.48
28175;SHT30;59417;44.788;10.334;2022-08-30T08:31:53;26.65;62.54
28175;SHT30;59417;44.788;10.334;2022-08-30T08:34:18;26.80;62.52
28175;SHT30;59417;44.788;10.334;2022-08-30T08:36:48;26.77;62.73
28175;SHT30;59417;44.788;10.334;2022-08-30T08:39:15;26.80;62.83
28175;SHT30;59417;44.788;10.334;2022-08-30T08:44:18;26.84;61.93
28175;SHT30;59417;44.788;10.334;2022-08-30T08:47:24;26.86;62.52
28175;SHT30;59417;44.788;10.334;2022-08-30T08:49:53;26.86;62.17
28175;SHT30;59417;44.788;10.334;2022-08-30T08:55:30;26.91;62.37
28175;SHT30;59417;44.788;10.334;2022-08-30T08:57:56;27.01;61.51
28175;SHT30;59417;44.788;10.334;2022-08-30T09:00:22;27.00;62.25
28175;SHT30;59417;44.788;10.334;2022-08-30T09:02:59;27.24;62.62
28175;SHT30;59417;44.788;10.334;2022-08-30T09:05:34;27.41;62.08
28175;SHT30;59417;44.788;10.334;2022-08-30T09:08:04;27.65;62.39
28175;SHT30;59417;44.788;10.334;2022-08-30T09:10:31;27.89;61.01
28175;SHT30;59417;44.788;10.334;2022-08-30T09:12:57;27.93;61.00
28175;SHT30;59417;44.788;10.334;2022-08-30T09:15:29;28.16;60.55
28175;SHT30;59417;44.788;10.334;2022-08-30T09:18:01;28.34;60.32
28175;SHT30;59417;44.788;10.334;2022-08-30T09:20:41;28.45;60.58
28175;SHT30;59417;44.788;10.334;2022-08-30T09:23:30;28.61;60.84
28175;SHT30;59417;44.788;10.334;2022-08-30T09:25:58;28.71;58.48
28175;SHT30;59417;44.788;10.334;2022-08-30T09:28:27;28.74;58.48
28175;SHT30;59417;44.788;10.334;2022-08-30T09:31:03;28.64;58.07
28175;SHT30;59417;44.788;10.334;2022-08-30T09:33:29;28.61;59.42
28175;SHT30;59417;44.788;10.334;2022-08-30T09:35:56;28.60;59.41
28175;SHT30;59417;44.788;10.334;2022-08-30T09:38:33;28.71;59.59
28175;SHT30;59417;44.788;10.334;2022-08-30T09:41:29;28.78;58.92
28175;SHT30;59417;44.788;10.334;2022-08-30T09:44:08;28.87;59.05
28175;SHT30;59417;44.788;10.334;2022-08-30T09:46:57;28.94;58.59
28175;SHT30;59417;44.788;10.334;2022-08-30T09:49:33;28.88;59.50
28175;SHT30;59417;44.788;10.334;2022-08-30T09:52:16;28.94;59.35
28175;SHT30;59417;44.788;10.334;2022-08-30T10:00:30;28.87;58.01
28175;SHT30;59417;44.788;10.334;2022-08-30T10:08:48;29.16;59.80
28175;SHT30;59417;44.788;10.334;2022-08-30T10:17:26;29.38;57.49
28175;SHT30;59417;44.788;10.334;2022-08-30T10:22:57;29.47;57.58
28175;SHT30;59417;44.788;10.334;2022-08-30T10:25:31;29.49;56.62
28175;SHT30;59417;44.788;10.334;2022-08-30T10:28:18;29.49;57.25
28175;SHT30;59417;44.788;10.334;2022-08-30T10:30:52;29.49;57.34
28175;SHT30;59417;44.788;10.334;2022-08-30T10:33:24;29.36;57.41
28175;SHT30;59417;44.788;10.334;2022-08-30T10:35:55;29.32;58.21
28175;SHT30;59417;44.788;10.334;2022-08-30T10:40:51;29.67;57.64
28175;SHT30;59417;44.788;10.334;2022-08-30T10:46:15;29.93;56.34
28175;SHT30;59417;44.788;10.334;2022-08-30T10:48:43;30.01;56.71
28175;SHT30;59417;44.788;10.334;2022-08-30T10:51:15;30.14;56.65
28175;SHT30;59417;44.788;10.334;2022-08-30T10:53:54;30.18;55.28
28175;SHT30;59417;44.788;10.334;2022-08-30T10:56:23;30.17;54.20
28175;SHT30;59417;44.788;10.334;2022-08-30T10:58:51;30.12;54.07
28175;SHT30;59417;44.788;10.334;2022-08-30T11:15:26;29.93;55.04
28175;SHT30;59417;44.788;10.334;2022-08-30T11:20:43;30.12;54.93
28175;SHT30;59417;44.788;10.334;2022-08-30T11:23:30;30.20;54.58
28175;SHT30;59417;44.788;10.334;2022-08-30T11:25:58;30.27;54.30
28175;SHT30;59417;44.788;10.334;2022-08-30T11:31:31;30.49;54.09
28175;SHT30;59417;44.788;10.334;2022-08-30T11:33:58;30.52;53.47
28175;SHT30;59417;44.788;10.334;2022-08-30T11:39:09;30.73;53.54
28175;SHT30;59417;44.788;10.334;2022-08-30T11:41:44;30.78;53.33
28175;SHT30;59417;44.788;10.334;2022-08-30T11:46:40;30.93;53.06
28175;SHT30;59417;44.788;10.334;2022-08-30T12:02:42;31.23;52.30
28175;SHT30;59417;44.788;10.334;2022-08-30T12:08:04;31.41;50.92
28175;SHT30;59417;44.788;10.334;2022-08-30T12:10:41;31.38;51.52
28175;SHT30;59417;44.788;10.334;2022-08-30T12:13:09;31.20;52.26
28175;SHT30;59417;44.788;10.334;2022-08-30T12:16:03;31.23;52.13
28175;SHT30;59417;44.788;10.334;2022-08-30T12:18:42;31.40;52.38
28175;SHT30;59417;44.788;10.334;2022-08-30T12:24:20;31.44;50.99
28175;SHT30;59417;44.788;10.334;2022-08-30T12:26:49;31.19;52.02
28175;SHT30;59417;44.788;10.334;2022-08-30T12:29:22;30.93;52.98
28175;SHT30;59417;44.788;10.334;2022-08-30T12:31:54;30.71;53.84
28175;SHT30;59417;44.788;10.334;2022-08-30T12:34:34;30.55;53.59
28175;SHT30;59417;44.788;10.334;2022-08-30T12:37:29;30.35;53.89
28175;SHT30;59417;44.788;10.334;2022-08-30T12:40:14;30.14;54.34
28175;SHT30;59417;44.788;10.334;2022-08-30T12:42:53;30.07;57.90
28175;SHT30;59417;44.788;10.334;2022-08-30T12:45:23;29.78;57.58
28175;SHT30;59417;44.788;10.334;2022-08-30T12:48:06;29.64;58.77
28175;SHT30;59417;44.788;10.334;2022-08-30T12:50:35;29.66;57.83
28175;SHT30;59417;44.788;10.334;2022-08-30T12:53:08;29.71;58.81
28175;SHT30;59417;44.788;10.334;2022-08-30T12:55:50;29.43;58.86
28175;SHT30;59417;44.788;10.334;2022-08-30T12:58:16;29.32;59.75
28175;SHT30;59417;44.788;10.334;2022-08-30T13:00:45;29.23;60.71
28175;SHT30;59417;44.788;10.334;2022-08-30T13:03:33;29.22;61.66
28175;SHT30;59417;44.788;10.334;2022-08-30T13:06:02;29.38;59.73
28175;SHT30;59417;44.788;10.334;2022-08-30T13:08:34;29.39;60.68
28175;SHT30;59417;44.788;10.334;2022-08-30T13:11:04;29.15;61.40
28175;SHT30;59417;44.788;10.334;2022-08-30T13:13:38;28.92;63.22
28175;SHT30;59417;44.788;10.334;2022-08-30T13:16:18;28.85;61.91
28175;SHT30;59417;44.788;10.334;2022-08-30T13:18:50;28.78;63.22
28175;SHT30;59417;44.788;10.334;2022-08-30T13:21:32;28.85;60.99
28175;SHT30;59417;44.788;10.334;2022-08-30T13:24:06;28.99;56.89
28175;SHT30;59417;44.788;10.334;2022-08-30T13:26:35;28.84;57.84
28175;SHT30;59417;44.788;10.334;2022-08-30T13:29:04;28.84;58.27
28175;SHT30;59417;44.788;10.334;2022-08-30T13:31:30;28.78;57.54
28175;SHT30;59417;44.788;10.334;2022-08-30T13:33:57;28.74;57.61
28175;SHT30;59417;44.788;10.334;2022-08-30T13:36:32;28.68;57.79
28175;SHT30;59417;44.788;10.334;2022-08-30T13:38:59;28.58;58.31
28175;SHT30;59417;44.788;10.334;2022-08-30T13:41:26;28.49;59.28
28175;SHT30;59417;44.788;10.334;2022-08-30T13:43:53;28.47;58.95
28175;SHT30;59417;44.788;10.334;2022-08-30T13:46:19;28.41;61.92
28175;SHT30;59417;44.788;10.334;2022-08-30T13:48:47;28.28;60.67
28175;SHT30;59417;44.788;10.334;2022-08-30T13:51:13;28.18;62.34
28175;SHT30;59417;44.788;10.334;2022-08-30T13:53:39;28.00;63.87
28175;SHT30;59417;44.788;10.334;2022-08-30T13:56:05;27.94;63.68
28175;SHT30;59417;44.788;10.334;2022-08-30T13:58:31;27.82;65.01
28175;SHT30;59417;44.788;10.334;2022-08-30T14:00:58;27.65;65.49
28175;SHT30;59417;44.788;10.334;2022-08-30T14:03:24;27.48;66.89
28175;SHT30;59417;44.788;10.334;2022-08-30T14:05:50;27.24;68.95
28175;SHT30;59417;44.788;10.334;2022-08-30T14:08:27;26.91;70.67
28175;SHT30;59417;44.788;10.334;2022-08-30T14:10:53;26.81;72.54
28175;SHT30;59417;44.788;10.334;2022-08-30T14:13:19;26.67;72.67
28175;SHT30;59417;44.788;10.334;2022-08-30T14:15:44;26.47;72.75
28175;SHT30;59417;44.788;10.334;2022-08-30T14:18:12;26.37;74.34
28175;SHT30;59417;44.788;10.334;2022-08-30T14:20:38;26.26;74.74
28175;SHT30;59417;44.788;10.334;2022-08-30T14:23:03;25.92;73.55
28175;SHT30;59417;44.788;10.334;2022-08-30T14:25:29;25.85;74.04
28175;SHT30;59417;44.788;10.334;2022-08-30T14:27:55;25.58;73.09
28175;SHT30;59417;44.788;10.334;2022-08-30T14:30:21;25.51;74.12
28175;SHT30;59417;44.788;10.334;2022-08-30T14:32:47;25.54;74.63
28175;SHT30;59417;44.788;10.334;2022-08-30T14:35:13;25.48;75.15
28175;SHT30;59417;44.788;10.334;2022-08-30T14:37:40;25.47;75.04
28175;SHT30;59417;44.788;10.334;2022-08-30T14:40:06;25.41;74.66
28175;SHT30;59417;44.788;10.334;2022-08-30T14:42:32;25.44;75.38
28175;SHT30;59417;44.788;10.334;2022-08-30T14:44:58;25.30;77.63
28175;SHT30;59417;44.788;10.334;2022-08-30T14:47:23;25.18;78.46
28175;SHT30;59417;44.788;10.334;2022-08-30T14:49:49;25.38;76.21
28175;SHT30;59417;44.788;10.334;2022-08-30T14:52:14;25.64;76.64
28175;SHT30;59417;44.788;10.334;2022-08-30T14:54:40;25.51;75.55
28175;SHT30;59417;44.788;10.334;2022-08-30T14:57:06;25.28;76.27
28175;SHT30;59417;44.788;10.334;2022-08-30T14:59:31;25.13;77.58
28175;SHT30;59417;44.788;10.334;2022-08-30T15:01:58;24.99;78.01
28175;SHT30;59417;44.788;10.334;2022-08-30T15:04:23;24.70;77.35
28175;SHT30;59417;44.788;10.334;2022-08-30T15:06:50;24.60;78.25
28175;SHT30;59417;44.788;10.334;2022-08-30T15:09:19;24.51;78.22
28175;SHT30;59417;44.788;10.334;2022-08-30T15:11:45;24.48;77.94
28175;SHT30;59417;44.788;10.334;2022-08-30T15:14:10;24.56;77.54
28175;SHT30;59417;44.788;10.334;2022-08-30T15:16:37;24.73;77.37
28175;SHT30;59417;44.788;10.334;2022-08-30T15:19:05;24.83;77.77
28175;SHT30;59417;44.788;10.334;2022-08-30T15:21:33;24.82;77.44
28175;SHT30;59417;44.788;10.334;2022-08-30T15:24:00;24.94;77.22
28175;SHT30;59417;44.788;10.334;2022-08-30T15:26:26;25.11;75.76
28175;SHT30;59417;44.788;10.334;2022-08-30T15:28:52;25.27;74.85
28175;SHT30;59417;44.788;10.334;2022-08-30T15:31:18;25.37;74.10
28175;SHT30;59417;44.788;10.334;2022-08-30T15:33:45;25.39;73.67
28175;SHT30;59417;44.788;10.334;2022-08-30T15:36:11;25.38;73.69
28175;SHT30;59417;44.788;10.334;2022-08-30T15:38:37;25.44;73.77
28175;SHT30;59417;44.788;10.334;2022-08-30T15:41:05;25.37;73.61
28175;SHT30;59417;44.788;10.334;2022-08-30T15:43:31;25.44;74.01
28175;SHT30;59417;44.788;10.334;2022-08-30T15:46:17;25.53;75.54
28175;SHT30;59417;44.788;10.334;2022-08-30T15:48:44;25.54;74.98
28175;SHT30;59417;44.788;10.334;2022-08-30T15:51:11;25.62;75.37
28175;SHT30;59417;44.788;10.334;2022-08-30T15:53:37;25.64;74.47
28175;SHT30;59417;44.788;10.334;2022-08-30T15:56:03;25.62;73.88
28175;SHT30;59417;44.788;10.334;2022-08-30T15:58:29;25.54;74.26
28175;SHT30;59417;44.788;10.334;2022-08-30T16:01:23;25.55;73.18
28175;SHT30;59417;44.788;10.334;2022-08-30T16:03:50;25.61;72.30
28175;SHT30;59417;44.788;10.334;2022-08-30T16:06:19;25.67;72.31
28175;SHT30;59417;44.788;10.334;2022-08-30T16:08:46;25.64;72.31
28175;SHT30;59417;44.788;10.334;2022-08-30T16:11:15;25.67;72.43
28175;SHT30;59417;44.788;10.334;2022-08-30T16:13:54;25.65;73.50
28175;SHT30;59417;44.788;10.334;2022-08-30T16:16:21;25.64;72.75
28175;SHT30;59417;44.788;10.334;2022-08-30T16:18:48;25.65;72.35
28175;SHT30;59417;44.788;10.334;2022-08-30T16:21:33;25.55;70.63
28175;SHT30;59417;44.788;10.334;2022-08-30T16:24:03;25.53;70.23
28175;SHT30;59417;44.788;10.334;2022-08-30T16:26:30;25.65;69.76
28175;SHT30;59417;44.788;10.334;2022-08-30T16:28:57;25.55;69.58
28175;SHT30;59417;44.788;10.334;2022-08-30T16:31:24;25.61;69.62
28175;SHT30;59417;44.788;10.334;2022-08-30T16:33:50;25.62;70.00
28175;SHT30;59417;44.788;10.334;2022-08-30T16:36:17;25.57;70.00
28175;SHT30;59417;44.788;10.334;2022-08-30T16:39:04;25.55;69.48
28175;SHT30;59417;44.788;10.334;2022-08-30T16:41:30;25.51;70.46
28175;SHT30;59417;44.788;10.334;2022-08-30T16:43:56;25.55;70.70